createdAt,value
2022-12-29T00:02:12.179Z,0.90
2022-12-29T00:07:15.840Z,1.00
2022-12-29T00:12:20.738Z,1.20
2022-12-29T00:22:44.741Z,1.35
2022-12-29T00:28:07.806Z,1.23
2022-12-29T00:33:30.437Z,1.00
2022-12-29T00:38:52.258Z,1.40
2022-12-29T00:44:11.350Z,1.38
2022-12-29T00:49:34.577Z,1.48
2022-12-29T00:54:39.649Z,1.02
2022-12-29T00:59:45.434Z,1.20
2022-12-29T01:04:48.908Z,1.17
2022-12-29T01:10:09.703Z,2.03
2022-12-29T01:15:16.516Z,1.67
2022-12-29T01:20:21.412Z,1.17
2022-12-29T01:30:29.810Z,1.20
2022-12-29T01:35:33.652Z,1.00
2022-12-29T01:40:46.068Z,1.40
2022-12-29T01:45:54.333Z,1.88
2022-12-29T01:50:58.256Z,1.88
2022-12-29T01:56:06.054Z,1.50
2022-12-29T02:01:11.247Z,1.23
2022-12-29T02:06:18.795Z,1.35
2022-12-29T02:11:23.374Z,1.38
2022-12-29T02:16:43.678Z,1.40
2022-12-29T02:22:13.990Z,1.60
2022-12-29T02:27:47.260Z,1.70
2022-12-29T02:33:00.267Z,1.50
2022-12-29T02:38:14.558Z,1.77
2022-12-29T02:43:28.881Z,1.73
2022-12-29T02:48:40.078Z,1.50
2022-12-29T02:54:01.397Z,1.80
2022-12-29T02:59:05.077Z,2.20
2022-12-29T03:04:30.609Z,1.75
2022-12-29T03:09:44.686Z,1.90
2022-12-29T03:15:14.955Z,1.80
2022-12-29T03:20:27.911Z,1.45
2022-12-29T03:25:34.840Z,1.80
2022-12-29T03:30:40.781Z,2.03
2022-12-29T03:35:48.006Z,2.10
2022-12-29T03:40:55.360Z,1.70
2022-12-29T03:45:58.936Z,1.63
2022-12-29T03:51:03.986Z,2.03
2022-12-29T03:56:07.870Z,1.83
2022-12-29T04:01:11.755Z,2.47
2022-12-29T04:06:16.615Z,2.03
2022-12-29T04:16:23.456Z,1.83
2022-12-29T04:21:28.510Z,1.60
2022-12-29T04:26:32.133Z,2.33
2022-12-29T04:31:35.753Z,1.80
2022-12-29T04:36:41.614Z,2.25
2022-12-29T04:41:45.265Z,1.88
2022-12-29T04:46:48.956Z,2.05
2022-12-29T04:51:53.985Z,2.65
2022-12-29T04:56:57.585Z,1.92
2022-12-29T05:02:01.270Z,1.77
2022-12-29T05:07:06.384Z,2.20
2022-12-29T05:12:10.304Z,2.35
2022-12-29T05:17:14.003Z,2.00
2022-12-29T05:22:19.543Z,2.05
2022-12-29T05:27:23.194Z,2.20
2022-12-29T05:32:26.571Z,2.58
2022-12-29T05:37:31.748Z,2.38
2022-12-29T05:42:36.158Z,2.67
2022-12-29T05:47:39.693Z,1.92
2022-12-29T05:52:44.491Z,2.05
2022-12-29T06:02:51.409Z,1.90
2022-12-29T06:07:56.555Z,1.90
2022-12-29T06:13:00.228Z,2.00
2022-12-29T06:18:03.907Z,2.78
2022-12-29T06:23:08.638Z,2.70
2022-12-29T06:28:13.192Z,2.50
2022-12-29T06:33:16.589Z,2.90
2022-12-29T06:38:22.652Z,3.60
2022-12-29T06:43:26.187Z,4.90
2022-12-29T06:48:29.779Z,3.78
2022-12-29T06:53:34.689Z,4.45
2022-12-29T06:58:38.320Z,4.53
2022-12-29T07:03:43.950Z,4.93
2022-12-29T07:08:49.081Z,5.25
2022-12-29T07:13:52.763Z,5.60
2022-12-29T07:18:56.320Z,5.25
2022-12-29T07:24:01.212Z,5.03
2022-12-29T07:29:05.021Z,5.10
2022-12-29T07:34:08.491Z,4.80
2022-12-29T07:39:14.071Z,3.80
2022-12-29T07:44:17.647Z,4.03
2022-12-29T07:49:21.254Z,4.03
2022-12-29T07:54:26.043Z,4.85
2022-12-29T07:59:30.211Z,4.10
2022-12-29T08:04:33.686Z,4.35
2022-12-29T08:09:38.862Z,3.47
2022-12-29T08:14:42.271Z,3.20
2022-12-29T08:19:46.064Z,3.63
2022-12-29T08:24:51.010Z,3.80
2022-12-29T08:29:54.781Z,4.18
2022-12-29T08:34:58.258Z,3.80
2022-12-29T08:40:05.079Z,3.28
2022-12-29T08:45:10.230Z,4.45
2022-12-29T08:50:13.927Z,3.40
2022-12-29T08:55:18.856Z,3.05
2022-12-29T09:00:23.346Z,3.85
2022-12-29T09:05:26.870Z,4.32
2022-12-29T09:10:31.896Z,4.20
2022-12-29T09:15:35.540Z,3.38
2022-12-29T09:20:39.199Z,3.40
2022-12-29T09:25:44.724Z,3.60
2022-12-29T09:30:48.105Z,3.70
2022-12-29T09:35:54.225Z,4.00
2022-12-29T09:41:04.153Z,4.18
2022-12-29T09:46:17.729Z,4.00
2022-12-29T09:51:26.233Z,4.65
2022-12-29T09:56:31.402Z,5.10
2022-12-29T10:01:39.115Z,4.95
2022-12-29T10:07:27.417Z,4.80
2022-12-29T10:12:27.819Z,4.40
2022-12-29T10:17:43.565Z,4.22
2022-12-29T10:23:04.014Z,4.20
2022-12-29T10:28:18.562Z,4.47
2022-12-29T10:33:26.581Z,5.00
2022-12-29T10:38:37.401Z,4.90
2022-12-29T10:43:48.064Z,4.78
2022-12-29T10:48:51.387Z,4.60
2022-12-29T10:54:00.259Z,4.72
2022-12-29T10:59:15.619Z,4.90
2022-12-29T11:04:34.147Z,4.45
2022-12-29T11:09:43.565Z,4.60
2022-12-29T11:14:48.805Z,4.68
2022-12-29T11:19:52.239Z,4.45
2022-12-29T11:24:57.166Z,4.80
2022-12-29T11:40:20.101Z,4.97
2022-12-29T11:45:27.892Z,5.53
2022-12-29T11:50:34.990Z,5.32
2022-12-29T11:55:39.264Z,5.93
2022-12-29T12:00:45.461Z,6.18
2022-12-29T12:05:54.944Z,5.32
2022-12-29T12:11:04.125Z,4.80
2022-12-29T12:16:14.870Z,5.07
2022-12-29T12:21:34.794Z,5.80
2022-12-29T12:26:44.933Z,5.88
2022-12-29T12:31:56.475Z,6.25
2022-12-29T12:37:17.047Z,6.40
2022-12-29T12:42:34.161Z,7.38
2022-12-29T12:47:52.886Z,7.68
2022-12-29T12:53:17.134Z,6.50
2022-12-29T12:58:30.678Z,7.13
2022-12-29T13:03:49.734Z,8.18
2022-12-29T13:09:20.531Z,8.40
2022-12-29T13:14:36.792Z,8.25
2022-12-29T13:19:48.031Z,8.10
2022-12-29T13:25:02.028Z,8.48
2022-12-29T13:30:13.278Z,7.45
2022-12-29T13:35:41.729Z,7.85
2022-12-29T13:40:52.291Z,9.32
2022-12-29T13:46:05.924Z,8.60
2022-12-29T13:51:12.155Z,10.25
2022-12-29T13:56:21.763Z,10.05
2022-12-29T14:01:31.104Z,10.40
2022-12-29T14:06:41.981Z,9.35
2022-12-29T14:11:45.574Z,10.20
2022-12-29T14:16:49.817Z,10.68
2022-12-29T14:21:57.933Z,11.52
2022-12-29T14:27:01.751Z,11.20
2022-12-29T14:32:30.560Z,11.48
2022-12-29T14:37:40.241Z,12.00
2022-12-29T14:42:44.676Z,11.63
2022-12-29T14:47:49.674Z,11.68
2022-12-29T14:53:02.389Z,13.05
2022-12-29T14:58:13.705Z,12.73
2022-12-29T15:03:25.063Z,12.43
2022-12-29T15:08:34.016Z,12.88
2022-12-29T15:13:39.431Z,12.60
2022-12-29T15:18:47.104Z,13.80
2022-12-29T15:23:52.379Z,14.15
2022-12-29T15:28:56.929Z,15.68
2022-12-29T15:34:12.041Z,14.38
2022-12-29T15:44:30.854Z,13.48
2022-12-29T15:49:34.908Z,13.73
2022-12-29T15:54:44.773Z,14.50
2022-12-29T15:59:49.498Z,15.32
2022-12-29T16:05:17.795Z,13.63
2022-12-29T16:10:30.453Z,13.47
2022-12-29T16:15:33.917Z,13.40
2022-12-29T16:20:42.669Z,14.48
2022-12-29T16:25:47.705Z,15.07
2022-12-29T16:31:00.873Z,16.40
2022-12-29T16:36:04.958Z,16.90
2022-12-29T16:41:10.156Z,16.60
2022-12-29T16:46:27.374Z,15.45
2022-12-29T16:51:33.987Z,19.70
2022-12-29T16:56:39.933Z,17.50
2022-12-29T17:01:43.574Z,15.77
2022-12-29T17:06:47.173Z,16.23
2022-12-29T17:12:05.006Z,17.23
2022-12-29T17:17:18.095Z,18.67
2022-12-29T17:22:26.523Z,17.42
2022-12-29T17:27:35.969Z,17.88
2022-12-29T17:32:39.832Z,18.50
2022-12-29T17:37:43.137Z,16.63
2022-12-29T17:42:49.580Z,15.85
2022-12-29T17:47:53.130Z,16.98
2022-12-29T17:53:01.000Z,16.05
2022-12-29T17:58:18.037Z,17.02
2022-12-29T18:03:25.364Z,17.48
2022-12-29T18:08:29.728Z,17.67
2022-12-29T18:13:45.842Z,18.10
2022-12-29T18:18:50.312Z,18.05
2022-12-29T18:23:54.031Z,18.45
2022-12-29T18:29:00.116Z,18.63
2022-12-29T18:34:08.821Z,18.95
2022-12-29T18:39:12.913Z,19.67
2022-12-29T18:44:17.986Z,19.95
2022-12-29T18:49:21.621Z,21.70
2022-12-29T18:54:29.158Z,24.05
2022-12-29T18:59:34.244Z,27.13
2022-12-29T19:04:37.696Z,29.80
2022-12-29T19:09:41.433Z,29.50
2022-12-29T19:14:46.877Z,28.40
2022-12-29T19:19:50.417Z,28.90
2022-12-29T19:24:59.764Z,26.75
2022-12-29T19:30:05.608Z,28.90
2022-12-29T19:35:10.319Z,29.10
2022-12-29T19:40:16.671Z,27.80
2022-12-29T19:45:21.897Z,26.85
2022-12-29T19:50:25.283Z,29.00
2022-12-29T19:55:28.720Z,30.90
2022-12-29T20:00:33.865Z,31.13
2022-12-29T20:05:37.223Z,30.50
2022-12-29T20:10:40.765Z,31.60
2022-12-29T20:15:46.347Z,32.15
2022-12-29T20:20:49.753Z,34.50
2022-12-29T20:25:57.141Z,34.55
2022-12-29T20:31:04.657Z,35.00
2022-12-29T20:36:09.366Z,33.72
2022-12-29T20:46:21.767Z,31.20
2022-12-29T20:51:27.147Z,34.38
2022-12-29T20:56:32.122Z,30.77
2022-12-29T21:01:37.412Z,30.92
2022-12-29T21:06:41.104Z,39.45
2022-12-29T21:11:44.465Z,40.03
2022-12-29T21:16:49.311Z,42.25
2022-12-29T21:26:55.703Z,37.10
2022-12-29T21:32:06.275Z,33.03
2022-12-29T21:37:10.262Z,32.83
2022-12-29T21:42:13.660Z,32.78
2022-12-29T21:47:18.361Z,29.38
2022-12-29T21:52:21.799Z,28.45
2022-12-29T21:57:42.569Z,28.15
2022-12-29T22:03:04.656Z,29.85
2022-12-29T22:08:25.584Z,27.60
2022-12-29T22:13:29.267Z,28.73
2022-12-29T22:18:34.170Z,29.50
2022-12-29T22:28:43.204Z,27.10
2022-12-29T22:33:48.383Z,27.05
2022-12-29T22:38:51.984Z,26.05
2022-12-29T22:43:56.123Z,24.85
2022-12-29T22:49:01.418Z,25.98
2022-12-29T22:54:05.055Z,27.35
2022-12-29T22:59:08.865Z,24.42
2022-12-29T23:04:59.116Z,25.02
2022-12-29T23:09:37.378Z,24.98
2022-12-29T23:14:40.822Z,24.50
2022-12-29T23:19:45.603Z,23.30
2022-12-29T23:24:49.075Z,25.45
2022-12-29T23:29:52.415Z,24.23
2022-12-29T23:34:57.245Z,24.13
2022-12-29T23:45:03.752Z,23.15
2022-12-29T23:50:10.184Z,23.42
2022-12-29T23:55:13.625Z,23.60
